sensor_id;sensor_type;location;lat;lon;timestamp;pressure;altitude;pressure_sealevel;temperature;humidity
51687;BME280;37774;52.192;4.584;2023-02-24T00:00:24;101904.03;;;2.32;100.00
51687;BME280;37774;52.192;4.584;2023-02-24T00:03:00;101839.50;;;2.03;100.00
51687;BME280;37774;52.192;4.584;2023-02-24T00:05:36;101889.63;;;2.36;100.00
51687;BME280;37774;52.192;4.584;2023-02-24T00:08:03;101865.28;;;2.26;100.00
51687;BME280;37774;52.192;4.584;2023-02-24T00:10:31;101905.38;;;2.43;100.00
51687;BME280;37774;52.192;4.584;2023-02-24T00:12:58;101726.81;;;1.45;100.00
51687;BME280;37774;52.192;4.584;2023-02-24T00:15:25;101709.41;;;1.58;100.00
51687;BME280;37774;52.192;4.584;2023-02-24T00:17:52;101839.84;;;2.11;100.00
51687;BME280;37774;52.192;4.584;2023-02-24T00:20:21;101809.91;;;1.90;100.00
51687;BME280;37774;52.192;4.584;2023-02-24T00:22:48;101289.06;;;-0.95;100.00
51687;BME280;37774;52.192;4.584;2023-02-24T00:25:15;101472.03;;;0.16;100.00
51687;BME280;37774;52.192;4.584;2023-02-24T00:27:43;101427.63;;;0.14;100.00
51687;BME280;37774;52.192;4.584;2023-02-24T00:30:11;101883.22;;;2.86;100.00
51687;BME280;37774;52.192;4.584;2023-02-24T00:32:38;101838.00;;;2.69;100.00
51687;BME280;37774;52.192;4.584;2023-02-24T00:35:06;101866.03;;;2.64;100.00
51687;BME280;37774;52.192;4.584;2023-02-24T00:37:35;101541.81;;;0.71;100.00
51687;BME280;37774;52.192;4.584;2023-02-24T00:40:03;101272.28;;;-0.90;100.00
51687;BME280;37774;52.192;4.584;2023-02-24T00:42:35;101876.91;;;2.58;100.00
51687;BME280;37774;52.192;4.584;2023-02-24T00:45:05;101637.56;;;1.35;100.00
51687;BME280;37774;52.192;4.584;2023-02-24T00:47:36;101467.47;;;0.28;100.00
51687;BME280;37774;52.192;4.584;2023-02-24T00:50:05;101447.13;;;0.12;100.00
51687;BME280;37774;52.192;4.584;2023-02-24T00:52:34;101749.78;;;1.83;100.00
51687;BME280;37774;52.192;4.584;2023-02-24T00:55:02;101822.00;;;2.33;100.00
51687;BME280;37774;52.192;4.584;2023-02-24T00:57:38;101831.47;;;2.15;100.00
51687;BME280;37774;52.192;4.584;2023-02-24T01:00:07;101673.63;;;1.40;100.00
51687;BME280;37774;52.192;4.584;2023-02-24T01:02:39;101695.25;;;1.46;100.00
51687;BME280;37774;52.192;4.584;2023-02-24T01:05:07;101530.13;;;0.38;100.00
51687;BME280;37774;52.192;4.584;2023-02-24T01:07:36;101535.22;;;0.56;100.00
51687;BME280;37774;52.192;4.584;2023-02-24T01:10:03;101525.09;;;0.60;100.00
51687;BME280;37774;52.192;4.584;2023-02-24T01:12:33;101302.59;;;-0.78;100.00
51687;BME280;37774;52.192;4.584;2023-02-24T01:15:15;101633.34;;;1.36;100.00
51687;BME280;37774;52.192;4.584;2023-02-24T01:17:42;101518.50;;;0.65;100.00
51687;BME280;37774;52.192;4.584;2023-02-24T01:20:12;101300.72;;;-0.63;100.00
51687;BME280;37774;52.192;4.584;2023-02-24T01:22:45;101284.06;;;-0.74;100.00
51687;BME280;37774;52.192;4.584;2023-02-24T01:25:12;101285.59;;;-0.78;100.00
51687;BME280;37774;52.192;4.584;2023-02-24T01:27:39;101662.47;;;1.59;100.00
51687;BME280;37774;52.192;4.584;2023-02-24T01:30:09;101305.13;;;-0.60;100.00
51687;BME280;37774;52.192;4.584;2023-02-24T01:32:41;101717.22;;;1.81;100.00
51687;BME280;37774;52.192;4.584;2023-02-24T01:35:08;101745.03;;;2.12;100.00
51687;BME280;37774;52.192;4.584;2023-02-24T01:37:37;101694.78;;;1.55;100.00
51687;BME280;37774;52.192;4.584;2023-02-24T01:40:08;101475.66;;;0.41;100.00
51687;BME280;37774;52.192;4.584;2023-02-24T01:42:42;101728.91;;;2.15;100.00
51687;BME280;37774;52.192;4.584;2023-02-24T01:45:18;101613.84;;;1.39;100.00
51687;BME280;37774;52.192;4.584;2023-02-24T01:47:46;101239.56;;;-0.99;100.00
51687;BME280;37774;52.192;4.584;2023-02-24T01:50:15;101659.66;;;1.72;100.00
51687;BME280;37774;52.192;4.584;2023-02-24T01:52:46;101165.72;;;-1.14;100.00
51687;BME280;37774;52.192;4.584;2023-02-24T01:55:20;101321.63;;;-0.34;100.00
51687;BME280;37774;52.192;4.584;2023-02-24T01:57:50;101383.31;;;0.13;100.00
51687;BME280;37774;52.192;4.584;2023-02-24T02:00:20;101718.72;;;2.16;100.00
51687;BME280;37774;52.192;4.584;2023-02-24T02:03:08;101739.16;;;2.15;100.00
51687;BME280;37774;52.192;4.584;2023-02-24T02:05:37;101708.75;;;2.24;100.00
51687;BME280;37774;52.192;4.584;2023-02-24T02:08:05;101144.63;;;-0.92;100.00
51687;BME280;37774;52.192;4.584;2023-02-24T02:10:35;101426.94;;;0.77;100.00
51687;BME280;37774;52.192;4.584;2023-02-24T02:13:04;101647.16;;;2.01;100.00
51687;BME280;37774;52.192;4.584;2023-02-24T02:15:34;101189.56;;;-0.76;100.00
51687;BME280;37774;52.192;4.584;2023-02-24T02:18:10;101120.31;;;-1.03;100.00
51687;BME280;37774;52.192;4.584;2023-02-24T02:20:56;101301.25;;;-0.32;100.00
51687;BME280;37774;52.192;4.584;2023-02-24T02:23:56;101615.22;;;1.93;100.00
51687;BME280;37774;52.192;4.584;2023-02-24T02:26:51;101489.97;;;1.16;100.00
51687;BME280;37774;52.192;4.584;2023-02-24T02:32:34;101538.31;;;1.51;100.00
51687;BME280;37774;52.192;4.584;2023-02-24T02:35:09;101555.41;;;1.71;100.00
51687;BME280;37774;52.192;4.584;2023-02-24T02:37:45;101317.56;;;0.31;100.00
51687;BME280;37774;52.192;4.584;2023-02-24T02:40:20;101267.81;;;0.03;100.00
51687;BME280;37774;52.192;4.584;2023-02-24T02:42:56;101100.16;;;-0.97;100.00
51687;BME280;37774;52.192;4.584;2023-02-24T02:45:28;101572.06;;;1.83;100.00
51687;BME280;37774;52.192;4.584;2023-02-24T02:48:00;101578.66;;;1.99;100.00
51687;BME280;37774;52.192;4.584;2023-02-24T02:50:34;101571.19;;;1.82;100.00
51687;BME280;37774;52.192;4.584;2023-02-24T02:53:07;101367.06;;;0.73;100.00
51687;BME280;37774;52.192;4.584;2023-02-24T02:55:40;101277.34;;;0.26;100.00
51687;BME280;37774;52.192;4.584;2023-02-24T02:58:11;101620.34;;;2.60;100.00
51687;BME280;37774;52.192;4.584;2023-02-24T03:00:43;101628.91;;;2.60;100.00
51687;BME280;37774;52.192;4.584;2023-02-24T03:03:18;101346.34;;;1.10;100.00
51687;BME280;37774;52.192;4.584;2023-02-24T03:05:49;101262.88;;;0.69;100.00
51687;BME280;37774;52.192;4.584;2023-02-24T03:08:21;101553.69;;;2.39;100.00
51687;BME280;37774;52.192;4.584;2023-02-24T03:10:51;101188.16;;;0.13;100.00
51687;BME280;37774;52.192;4.584;2023-02-24T03:13:22;101315.00;;;0.94;100.00
51687;BME280;37774;52.192;4.584;2023-02-24T03:15:51;101579.44;;;2.87;100.00
51687;BME280;37774;52.192;4.584;2023-02-24T03:18:25;101515.78;;;2.54;100.00
51687;BME280;37774;52.192;4.584;2023-02-24T03:20:58;101571.66;;;2.86;100.00
51687;BME280;37774;52.192;4.584;2023-02-24T03:23:34;101401.91;;;1.79;100.00
51687;BME280;37774;52.192;4.584;2023-02-24T03:26:08;101511.47;;;2.53;100.00
51687;BME280;37774;52.192;4.584;2023-02-24T03:28:49;101210.88;;;0.70;100.00
51687;BME280;37774;52.192;4.584;2023-02-24T03:31:22;101532.34;;;2.87;100.00
51687;BME280;37774;52.192;4.584;2023-02-24T03:33:58;101016.69;;;-0.16;100.00
51687;BME280;37774;52.192;4.584;2023-02-24T03:36:29;101539.72;;;3.02;100.00
51687;BME280;37774;52.192;4.584;2023-02-24T03:38:57;101280.69;;;1.57;100.00
51687;BME280;37774;52.192;4.584;2023-02-24T03:41:29;101529.22;;;3.20;100.00
51687;BME280;37774;52.192;4.584;2023-02-24T03:44:00;101542.16;;;3.23;100.00
51687;BME280;37774;52.192;4.584;2023-02-24T03:46:29;101071.41;;;0.35;100.00
51687;BME280;37774;52.192;4.584;2023-02-24T03:49:00;101517.13;;;3.17;100.00
51687;BME280;37774;52.192;4.584;2023-02-24T03:51:29;101306.50;;;1.86;100.00
51687;BME280;37774;52.192;4.584;2023-02-24T03:54:08;101362.91;;;2.35;100.00
51687;BME280;37774;52.192;4.584;2023-02-24T03:56:46;101459.38;;;2.80;100.00
51687;BME280;37774;52.192;4.584;2023-02-24T03:59:16;101510.34;;;3.19;100.00
51687;BME280;37774;52.192;4.584;2023-02-24T04:01:51;101448.44;;;2.86;100.00
51687;BME280;37774;52.192;4.584;2023-02-24T04:04:27;101444.91;;;2.82;100.00
51687;BME280;37774;52.192;4.584;2023-02-24T04:07:02;101387.66;;;2.59;100.00
51687;BME280;37774;52.192;4.584;2023-02-24T04:09:38;101429.63;;;2.87;100.00
51687;BME280;37774;52.192;4.584;2023-02-24T04:12:12;101045.50;;;0.71;100.00
51687;BME280;37774;52.192;4.584;2023-02-24T04:14:48;101306.66;;;2.15;100.00
51687;BME280;37774;52.192;4.584;2023-02-24T04:17:19;101084.41;;;0.86;100.00
51687;BME280;37774;52.192;4.584;2023-02-24T04:19:50;101429.41;;;2.79;100.00
51687;BME280;37774;52.192;4.584;2023-02-24T04:22:23;101043.88;;;0.50;100.00
51687;BME280;37774;52.192;4.584;2023-02-24T04:24:55;101381.63;;;2.58;100.00
51687;BME280;37774;52.192;4.584;2023-02-24T04:27:25;101481.22;;;3.46;100.00
51687;BME280;37774;52.192;4.584;2023-02-24T04:29:54;101150.53;;;1.23;100.00
51687;BME280;37774;52.192;4.584;2023-02-24T04:32:27;101174.63;;;1.52;100.00
51687;BME280;37774;52.192;4.584;2023-02-24T04:35:01;101481.19;;;3.45;100.00
51687;BME280;37774;52.192;4.584;2023-02-24T04:37:30;101082.13;;;0.94;100.00
51687;BME280;37774;52.192;4.584;2023-02-24T04:39:58;101316.88;;;2.66;100.00
51687;BME280;37774;52.192;4.584;2023-02-24T04:42:25;101399.78;;;3.16;100.00
51687;BME280;37774;52.192;4.584;2023-02-24T04:44:52;101117.69;;;1.35;100.00
51687;BME280;37774;52.192;4.584;2023-02-24T04:47:22;101155.19;;;1.59;100.00
51687;BME280;37774;52.192;4.584;2023-02-24T04:49:53;101124.22;;;1.51;100.00
51687;BME280;37774;52.192;4.584;2023-02-24T04:52:20;101287.38;;;2.53;100.00
51687;BME280;37774;52.192;4.584;2023-02-24T04:54:48;101448.28;;;3.62;100.00
51687;BME280;37774;52.192;4.584;2023-02-24T04:57:15;101203.72;;;2.04;100.00
51687;BME280;37774;52.192;4.584;2023-02-24T04:59:42;101254.75;;;2.48;100.00
51687;BME280;37774;52.192;4.584;2023-02-24T05:02:09;101076.38;;;1.50;100.00
51687;BME280;37774;52.192;4.584;2023-02-24T05:04:36;101401.56;;;3.46;100.00
51687;BME280;37774;52.192;4.584;2023-02-24T05:07:03;101071.69;;;1.38;100.00
51687;BME280;37774;52.192;4.584;2023-02-24T05:09:30;101084.72;;;1.70;100.00
51687;BME280;37774;52.192;4.584;2023-02-24T05:11:59;101261.63;;;2.77;100.00
51687;BME280;37774;52.192;4.584;2023-02-24T05:14:26;101238.91;;;2.62;100.00
51687;BME280;37774;52.192;4.584;2023-02-24T05:16:53;101400.34;;;3.62;100.00
51687;BME280;37774;52.192;4.584;2023-02-24T05:19:25;101306.13;;;3.05;100.00
51687;BME280;37774;52.192;4.584;2023-02-24T05:22:09;101407.34;;;3.68;100.00
51687;BME280;37774;52.192;4.584;2023-02-24T05:24:41;101336.31;;;3.41;100.00
51687;BME280;37774;52.192;4.584;2023-02-24T05:27:13;101306.78;;;3.27;100.00
51687;BME280;37774;52.192;4.584;2023-02-24T05:29:42;101255.34;;;2.96;100.00
51687;BME280;37774;52.192;4.584;2023-02-24T05:32:09;100987.34;;;1.43;100.00
51687;BME280;37774;52.192;4.584;2023-02-24T05:34:36;101225.59;;;2.74;100.00
51687;BME280;37774;52.192;4.584;2023-02-24T05:37:03;101011.88;;;1.62;100.00
51687;BME280;37774;52.192;4.584;2023-02-24T05:39:35;101100.44;;;2.09;100.00
51687;BME280;37774;52.192;4.584;2023-02-24T05:42:02;101225.63;;;3.04;100.00
51687;BME280;37774;52.192;4.584;2023-02-24T05:44:33;101076.72;;;2.14;100.00
51687;BME280;37774;52.192;4.584;2023-02-24T05:47:01;101354.84;;;3.89;100.00
51687;BME280;37774;52.192;4.584;2023-02-24T05:49:32;101198.53;;;3.14;100.00
51687;BME280;37774;52.192;4.584;2023-02-24T05:52:00;100746.53;;;0.28;100.00
51687;BME280;37774;52.192;4.584;2023-02-24T05:54:35;100797.59;;;0.79;100.00
51687;BME280;37774;52.192;4.584;2023-02-24T05:57:04;101154.94;;;2.85;100.00
51687;BME280;37774;52.192;4.584;2023-02-24T05:59:33;101308.63;;;3.92;100.00
51687;BME280;37774;52.192;4.584;2023-02-24T06:02:03;101054.63;;;2.48;100.00
51687;BME280;37774;52.192;4.584;2023-02-24T06:04:31;101166.91;;;3.17;100.00
51687;BME280;37774;52.192;4.584;2023-02-24T06:07:06;101296.84;;;4.00;100.00
51687;BME280;37774;52.192;4.584;2023-02-24T06:09:38;101215.06;;;3.55;100.00
51687;BME280;37774;52.192;4.584;2023-02-24T06:12:09;101197.75;;;3.47;100.00
51687;BME280;37774;52.192;4.584;2023-02-24T06:14:39;101216.03;;;3.58;100.00
51687;BME280;37774;52.192;4.584;2023-02-24T06:17:06;101269.66;;;4.10;100.00
51687;BME280;37774;52.192;4.584;2023-02-24T06:19:34;100872.25;;;1.78;100.00
51687;BME280;37774;52.192;4.584;2023-02-24T06:22:01;101208.06;;;3.81;100.00
51687;BME280;37774;52.192;4.584;2023-02-24T06:24:30;101082.72;;;3.05;100.00
51687;BME280;37774;52.192;4.584;2023-02-24T06:26:58;101263.00;;;4.17;100.00
51687;BME280;37774;52.192;4.584;2023-02-24T06:29:28;101243.75;;;4.02;100.00
51687;BME280;37774;52.192;4.584;2023-02-24T06:31:57;101039.25;;;2.79;100.00
51687;BME280;37774;52.192;4.584;2023-02-24T06:34:24;101251.03;;;4.19;100.00
51687;BME280;37774;52.192;4.584;2023-02-24T06:36:52;101251.88;;;4.19;100.00
51687;BME280;37774;52.192;4.584;2023-02-24T06:39:19;101197.22;;;3.93;100.00
51687;BME280;37774;52.192;4.584;2023-02-24T06:41:48;101227.00;;;4.18;100.00
51687;BME280;37774;52.192;4.584;2023-02-24T06:44:16;100837.28;;;1.79;100.00
51687;BME280;37774;52.192;4.584;2023-02-24T06:46:43;100910.66;;;2.38;100.00
51687;BME280;37774;52.192;4.584;2023-02-24T06:49:12;100995.63;;;2.81;100.00
51687;BME280;37774;52.192;4.584;2023-02-24T06:51:39;100931.50;;;2.48;100.00
51687;BME280;37774;52.192;4.584;2023-02-24T06:54:08;101112.03;;;3.45;100.00
51687;BME280;37774;52.192;4.584;2023-02-24T06:56:34;100894.19;;;2.28;100.00
51687;BME280;37774;52.192;4.584;2023-02-24T06:59:04;101014.38;;;3.10;100.00
51687;BME280;37774;52.192;4.584;2023-02-24T07:01:32;101151.56;;;3.84;100.00
51687;BME280;37774;52.192;4.584;2023-02-24T07:03:59;101027.47;;;3.19;100.00
51687;BME280;37774;52.192;4.584;2023-02-24T07:06:45;101178.84;;;4.13;100.00
51687;BME280;37774;52.192;4.584;2023-02-24T07:09:15;100754.63;;;1.55;100.00
51687;BME280;37774;52.192;4.584;2023-02-24T07:11:44;101149.38;;;4.00;100.00
51687;BME280;37774;52.192;4.584;2023-02-24T07:14:13;101178.28;;;4.24;100.00
51687;BME280;37774;52.192;4.584;2023-02-24T07:16:40;101181.72;;;4.25;100.00
51687;BME280;37774;52.192;4.584;2023-02-24T07:19:11;100876.56;;;2.40;100.00
51687;BME280;37774;52.192;4.584;2023-02-24T07:21:40;101172.19;;;4.21;100.00
51687;BME280;37774;52.192;4.584;2023-02-24T07:24:10;100939.16;;;2.81;100.00
51687;BME280;37774;52.192;4.584;2023-02-24T07:26:39;100891.66;;;2.63;100.00
51687;BME280;37774;52.192;4.584;2023-02-24T07:29:09;101167.25;;;4.29;100.00
51687;BME280;37774;52.192;4.584;2023-02-24T07:31:37;100892.38;;;2.57;100.00
51687;BME280;37774;52.192;4.584;2023-02-24T07:34:04;101163.06;;;4.34;100.00
51687;BME280;37774;52.192;4.584;2023-02-24T07:36:31;101035.47;;;3.67;100.00
51687;BME280;37774;52.192;4.584;2023-02-24T07:39:05;100884.50;;;2.85;100.00
51687;BME280;37774;52.192;4.584;2023-02-24T07:41:34;101086.19;;;4.09;100.00
51687;BME280;37774;52.192;4.584;2023-02-24T07:44:02;100782.34;;;2.34;100.00
51687;BME280;37774;52.192;4.584;2023-02-24T07:46:34;101061.44;;;4.16;100.00
51687;BME280;37774;52.192;4.584;2023-02-24T07:49:00;101090.06;;;4.30;100.00
51687;BME280;37774;52.192;4.584;2023-02-24T07:51:28;101108.41;;;4.44;100.00
51687;BME280;37774;52.192;4.584;2023-02-24T07:53:57;100786.25;;;2.54;100.00
51687;BME280;37774;52.192;4.584;2023-02-24T07:56:26;101069.50;;;4.30;100.00
51687;BME280;37774;52.192;4.584;2023-02-24T07:58:58;101047.47;;;4.03;100.00
51687;BME280;37774;52.192;4.584;2023-02-24T08:01:26;100925.22;;;3.41;100.00
51687;BME280;37774;52.192;4.584;2023-02-24T08:03:56;100974.88;;;3.77;100.00
51687;BME280;37774;52.192;4.584;2023-02-24T08:06:30;101096.59;;;4.54;100.00
51687;BME280;37774;52.192;4.584;2023-02-24T08:09:04;100621.38;;;1.52;100.00
51687;BME280;37774;52.192;4.584;2023-02-24T08:11:42;100539.72;;;1.31;100.00
51687;BME280;37774;52.192;4.584;2023-02-24T08:14:12;101079.47;;;4.55;100.00
51687;BME280;37774;52.192;4.584;2023-02-24T08:16:40;101075.28;;;4.61;100.00
51687;BME280;37774;52.192;4.584;2023-02-24T08:19:09;100787.03;;;2.86;100.00
51687;BME280;37774;52.192;4.584;2023-02-24T08:21:38;101087.38;;;4.65;100.00
51687;BME280;37774;52.192;4.584;2023-02-24T08:24:06;100856.47;;;3.29;100.00
51687;BME280;37774;52.192;4.584;2023-02-24T08:26:43;101014.75;;;4.37;100.00
51687;BME280;37774;52.192;4.584;2023-02-24T08:29:12;101065.28;;;4.75;100.00
51687;BME280;37774;52.192;4.584;2023-02-24T08:31:39;101024.31;;;4.43;100.00
51687;BME280;37774;52.192;4.584;2023-02-24T08:34:08;100765.94;;;3.01;100.00
51687;BME280;37774;52.192;4.584;2023-02-24T08:36:35;101011.72;;;4.57;100.00
51687;BME280;37774;52.192;4.584;2023-02-24T08:39:02;100893.44;;;3.74;100.00
51687;BME280;37774;52.192;4.584;2023-02-24T08:41:29;100699.50;;;2.74;100.00
51687;BME280;37774;52.192;4.584;2023-02-24T08:44:14;100897.38;;;4.00;100.00
51687;BME280;37774;52.192;4.584;2023-02-24T08:46:43;101005.78;;;4.60;100.00
51687;BME280;37774;52.192;4.584;2023-02-24T08:49:14;100760.59;;;3.30;100.00
51687;BME280;37774;52.192;4.584;2023-02-24T08:51:43;100650.63;;;2.69;100.00
51687;BME280;37774;52.192;4.584;2023-02-24T08:54:13;100976.81;;;4.72;100.00
51687;BME280;37774;52.192;4.584;2023-02-24T08:56:44;100958.56;;;4.59;100.00
51687;BME280;37774;52.192;4.584;2023-02-24T08:59:22;101013.94;;;4.83;100.00
51687;BME280;37774;52.192;4.584;2023-02-24T09:02:04;100704.69;;;3.18;100.00
51687;BME280;37774;52.192;4.584;2023-02-24T09:04:50;100946.84;;;4.77;100.00
51687;BME280;37774;52.192;4.584;2023-02-24T09:07:18;100682.72;;;3.33;100.00
51687;BME280;37774;52.192;4.584;2023-02-24T09:09:46;100792.94;;;4.08;100.00
51687;BME280;37774;52.192;4.584;2023-02-24T09:12:14;100830.69;;;4.58;100.00
51687;BME280;37774;52.192;4.584;2023-02-24T09:14:53;100480.75;;;2.43;100.00
51687;BME280;37774;52.192;4.584;2023-02-24T09:17:22;100856.78;;;4.78;100.00
51687;BME280;37774;52.192;4.584;2023-02-24T09:20:06;100611.13;;;3.51;100.00
51687;BME280;37774;52.192;4.584;2023-02-24T09:23:20;100699.72;;;4.21;100.00
51687;BME280;37774;52.192;4.584;2023-02-24T09:25:55;100474.84;;;2.91;100.00
51687;BME280;37774;52.192;4.584;2023-02-24T09:28:23;100700.09;;;4.45;100.00
51687;BME280;37774;52.192;4.584;2023-02-24T09:30:55;100333.94;;;2.09;100.00
51687;BME280;37774;52.192;4.584;2023-02-24T09:33:24;100631.09;;;4.19;100.00
51687;BME280;37774;52.192;4.584;2023-02-24T09:35:54;100543.16;;;3.86;100.00
51687;BME280;37774;52.192;4.584;2023-02-24T09:38:35;100532.88;;;3.85;100.00
51687;BME280;37774;52.192;4.584;2023-02-24T09:52:09;100460.59;;;3.09;100.00
51687;BME280;37774;52.192;4.584;2023-02-24T09:54:41;100368.84;;;2.48;100.00
51687;BME280;37774;52.192;4.584;2023-02-24T09:57:30;100913.97;;;5.11;100.00
51687;BME280;37774;52.192;4.584;2023-02-24T10:00:06;100634.88;;;4.43;100.00
51687;BME280;37774;52.192;4.584;2023-02-24T10:02:55;100808.19;;;4.99;100.00
51687;BME280;37774;52.192;4.584;2023-02-24T10:05:32;100562.78;;;3.29;100.00
51687;BME280;37774;52.192;4.584;2023-02-24T10:08:12;100538.69;;;1.95;100.00
51687;BME280;37774;52.192;4.584;2023-02-24T10:10:42;100523.66;;;1.72;100.00
51687;BME280;37774;52.192;4.584;2023-02-24T10:13:26;101138.03;;;3.91;100.00
51687;BME280;37774;52.192;4.584;2023-02-24T10:15:58;101156.97;;;4.30;100.00
51687;BME280;37774;52.192;4.584;2023-02-24T10:18:32;100759.56;;;1.80;100.00
51687;BME280;37774;52.192;4.584;2023-02-24T10:21:12;101175.41;;;4.12;100.00
51687;BME280;37774;52.192;4.584;2023-02-24T10:23:54;101107.81;;;2.83;100.00
51687;BME280;37774;52.192;4.584;2023-02-24T10:26:29;101007.13;;;2.32;100.00
51687;BME280;37774;52.192;4.584;2023-02-24T10:29:06;101518.28;;;5.01;100.00
51687;BME280;37774;52.192;4.584;2023-02-24T10:31:45;101077.53;;;2.13;100.00
51687;BME280;37774;52.192;4.584;2023-02-24T10:34:15;101641.41;;;5.45;100.00
51687;BME280;37774;52.192;4.584;2023-02-24T10:36:49;101636.41;;;5.50;100.00
51687;BME280;37774;52.192;4.584;2023-02-24T10:39:20;101232.22;;;2.95;100.00
51687;BME280;37774;52.192;4.584;2023-02-24T10:41:51;101657.94;;;5.52;100.00
51687;BME280;37774;52.192;4.584;2023-02-24T10:44:23;101688.91;;;5.21;100.00
51687;BME280;37774;52.192;4.584;2023-02-24T10:47:00;101703.47;;;5.51;100.00
51687;BME280;37774;52.192;4.584;2023-02-24T10:49:40;101624.06;;;4.77;100.00
51687;BME280;37774;52.192;4.584;2023-02-24T10:52:22;101448.75;;;3.48;100.00
51687;BME280;37774;52.192;4.584;2023-02-24T10:55:15;101661.56;;;4.67;100.00
51687;BME280;37774;52.192;4.584;2023-02-24T10:57:53;101541.13;;;3.99;100.00
51687;BME280;37774;52.192;4.584;2023-02-24T11:00:38;101611.13;;;4.45;100.00
51687;BME280;37774;52.192;4.584;2023-02-24T11:03:26;101786.59;;;5.43;100.00
51687;BME280;37774;52.192;4.584;2023-02-24T11:06:17;101653.34;;;4.79;100.00
51687;BME280;37774;52.192;4.584;2023-02-24T11:08:58;101792.59;;;5.43;100.00
51687;BME280;37774;52.192;4.584;2023-02-24T11:11:45;101542.19;;;4.05;100.00
51687;BME280;37774;52.192;4.584;2023-02-24T11:14:31;101587.19;;;4.47;100.00
51687;BME280;37774;52.192;4.584;2023-02-24T11:17:19;101671.66;;;4.88;100.00
51687;BME280;37774;52.192;4.584;2023-02-24T11:19:56;101642.97;;;4.77;100.00
51687;BME280;37774;52.192;4.584;2023-02-24T11:22:29;101653.81;;;4.96;100.00
51687;BME280;37774;52.192;4.584;2023-02-24T11:24:59;101795.53;;;5.86;100.00
51687;BME280;37774;52.192;4.584;2023-02-24T11:27:31;101664.69;;;5.16;100.00
51687;BME280;37774;52.192;4.584;2023-02-24T11:30:09;101593.00;;;4.71;100.00
51687;BME280;37774;52.192;4.584;2023-02-24T11:32:55;101879.00;;;6.51;100.00
51687;BME280;37774;52.192;4.584;2023-02-24T11:35:30;101650.91;;;5.46;100.00
51687;BME280;37774;52.192;4.584;2023-02-24T11:38:03;101829.53;;;6.69;100.00
51687;BME280;37774;52.192;4.584;2023-02-24T11:40:36;101731.91;;;6.19;100.00
51687;BME280;37774;52.192;4.584;2023-02-24T11:43:10;101802.84;;;6.70;100.00
51687;BME280;37774;52.192;4.584;2023-02-24T11:45:43;101551.47;;;5.22;100.00
51687;BME280;37774;52.192;4.584;2023-02-24T11:48:15;101256.81;;;3.76;100.00
51687;BME280;37774;52.192;4.584;2023-02-24T11:50:47;101736.81;;;6.83;100.00
51687;BME280;37774;52.192;4.584;2023-02-24T11:53:25;101713.03;;;6.96;100.00
51687;BME280;37774;52.192;4.584;2023-02-24T11:56:00;101350.06;;;5.04;100.00
51687;BME280;37774;52.192;4.584;2023-02-24T11:58:39;101450.81;;;5.90;100.00
51687;BME280;37774;52.192;4.584;2023-02-24T12:01:12;101541.91;;;6.67;100.00
51687;BME280;37774;52.192;4.584;2023-02-24T12:03:50;101101.69;;;4.13;100.00
51687;BME280;37774;52.192;4.584;2023-02-24T12:06:22;101534.81;;;7.03;100.00
51687;BME280;37774;52.192;4.584;2023-02-24T12:08:56;101205.41;;;5.26;100.00
51687;BME280;37774;52.192;4.584;2023-02-24T12:11:34;101215.41;;;5.54;100.00
51687;BME280;37774;52.192;4.584;2023-02-24T12:14:14;101359.66;;;6.86;100.00
51687;BME280;37774;52.192;4.584;2023-02-24T12:16:45;101293.75;;;6.56;100.00
51687;BME280;37774;52.192;4.584;2023-02-24T12:19:17;101407.91;;;7.41;100.00
51687;BME280;37774;52.192;4.584;2023-02-24T12:21:50;101328.63;;;6.83;100.00
51687;BME280;37774;52.192;4.584;2023-02-24T12:24:19;101037.78;;;5.20;100.00
51687;BME280;37774;52.192;4.584;2023-02-24T12:26:55;100995.19;;;4.90;100.00
51687;BME280;37774;52.192;4.584;2023-02-24T12:29:42;101399.66;;;7.08;100.00
51687;BME280;37774;52.192;4.584;2023-02-24T12:32:21;101295.03;;;6.81;100.00
51687;BME280;37774;52.192;4.584;2023-02-24T12:34:59;101103.78;;;6.12;100.00
51687;BME280;37774;52.192;4.584;2023-02-24T12:37:47;101261.81;;;7.09;100.00
51687;BME280;37774;52.192;4.584;2023-02-24T12:40:28;100898.56;;;5.14;100.00
51687;BME280;37774;52.192;4.584;2023-02-24T12:43:10;101296.19;;;7.68;100.00
51687;BME280;37774;52.192;4.584;2023-02-24T12:45:47;101178.72;;;7.49;100.00
51687;BME280;37774;52.192;4.584;2023-02-24T12:48:36;101250.78;;;7.97;100.00
51687;BME280;37774;52.192;4.584;2023-02-24T12:51:16;101206.41;;;7.59;100.00
51687;BME280;37774;52.192;4.584;2023-02-24T12:53:51;100825.00;;;5.33;100.00
51687;BME280;37774;52.192;4.584;2023-02-24T12:56:24;100944.69;;;6.14;100.00
51687;BME280;37774;52.192;4.584;2023-02-24T12:58:56;100970.56;;;6.19;100.00
51687;BME280;37774;52.192;4.584;2023-02-24T13:01:30;100681.94;;;4.35;100.00
51687;BME280;37774;52.192;4.584;2023-02-24T13:04:13;101072.59;;;6.61;100.00
51687;BME280;37774;52.192;4.584;2023-02-24T13:06:55;100633.56;;;4.13;100.00
51687;BME280;37774;52.192;4.584;2023-02-24T13:09:26;101158.69;;;7.29;100.00
51687;BME280;37774;52.192;4.584;2023-02-24T13:11:59;101169.00;;;7.26;100.00
51687;BME280;37774;52.192;4.584;2023-02-24T13:14:30;100621.53;;;4.10;100.00
51687;BME280;37774;52.192;4.584;2023-02-24T13:17:05;101106.94;;;6.54;100.00
51687;BME280;37774;52.192;4.584;2023-02-24T13:19:32;101121.09;;;6.84;100.00
51687;BME280;37774;52.192;4.584;2023-02-24T13:22:05;100891.47;;;5.58;100.00
51687;BME280;37774;52.192;4.584;2023-02-24T13:24:33;101072.16;;;6.95;100.00
51687;BME280;37774;52.192;4.584;2023-02-24T13:27:12;101074.91;;;7.09;100.00
51687;BME280;37774;52.192;4.584;2023-02-24T13:29:47;100841.38;;;6.05;100.00
51687;BME280;37774;52.192;4.584;2023-02-24T13:32:27;100727.22;;;5.47;100.00